Time,TemperatureF,DewpointF,PressureIn,WindDirection,WindDirectionDegrees,WindSpeedMPH,WindSpeedGustMPH,Humidity,HourlyPrecipIn,Conditions,Clouds,dailyrainin,SoftwareType,DateUTC
2013-01-22 00:00:00,59.9,46.9,30.06,North,353,2.2,2.7,62,0.00,,---,0.00,VWS V14.01,2013-01-22 05:00:00,
2013-01-22 00:03:00,59.9,46.9,30.06,North,353,0.0,0.0,62,0.00,,---,0.00,VWS V14.01,2013-01-22 05:03:00,
2013-01-22 00:08:00,59.9,46.9,30.06,North,353,0.0,0.0,62,0.00,,---,0.00,VWS V14.01,2013-01-22 05:08:00,
2013-01-22 00:13:00,59.7,46.3,30.06,NW,310,0.0,0.0,61,0.00,,---,0.00,VWS V14.01,2013-01-22 05:13:00,
2013-01-22 00:18:00,59.7,46.3,30.06,NW,319,0.0,0.0,61,0.00,,---,0.00,VWS V14.01,2013-01-22 05:18:00,
2013-01-22 00:23:00,59.7,45.8,30.06,NW,323,2.2,2.2,60,0.00,,---,0.00,VWS V14.01,2013-01-22 05:23:00,
2013-01-22 00:28:00,59.5,46.1,30.06,NW,316,0.0,0.0,61,0.00,,---,0.00,VWS V14.01,2013-01-22 05:28:00,
2013-01-22 00:33:00,59.5,46.1,30.06,NW,309,0.0,0.0,61,0.00,,---,0.00,VWS V14.01,2013-01-22 05:33:00,
2013-01-22 00:38:00,59.5,46.1,30.06,NW,315,3.1,3.1,61,0.00,,---,0.00,VWS V14.01,2013-01-22 05:38:00,
2013-01-22 00:43:00,59.5,45.7,30.06,North,353,2.2,2.7,60,0.00,,---,0.00,VWS V14.01,2013-01-22 05:43:00,
2013-01-22 00:48:00,59.7,45.8,30.06,North,353,0.0,0.0,60,0.00,,---,0.00,VWS V14.01,2013-01-22 05:48:00,
2013-01-22 00:53:00,59.7,46.3,30.06,NNW,348,0.0,0.0,61,0.00,,---,0.00,VWS V14.01,2013-01-22 05:53:00,
2013-01-22 00:58:00,59.7,46.3,30.06,NNE,22,3.1,3.1,61,0.00,,---,0.00,VWS V14.01,2013-01-22 05:58:00,
2013-01-22 01:03:00,59.7,46.3,30.06,NNW,341,0.0,0.0,61,0.00,,---,0.00,VWS V14.01,2013-01-22 06:03:00,
2013-01-22 01:08:00,59.9,46.9,30.06,North,357,0.0,0.0,62,0.00,,---,0.00,VWS V14.01,2013-01-22 06:08:00,
2013-01-22 01:13:00,59.7,47.1,30.06,NNW,342,2.7,2.7,63,0.00,,---,0.00,VWS V14.01,2013-01-22 06:13:00,
2013-01-22 01:18:00,59.7,46.7,30.06,NNW,342,2.2,2.7,62,0.00,,---,0.00,VWS V14.01,2013-01-22 06:18:00,
2013-01-22 01:23:00,59.9,47.3,30.06,NNW,342,0.0,0.0,63,0.00,,---,0.00,VWS V14.01,2013-01-22 06:23:00,
2013-01-22 01:28:00,59.9,47.3,30.06,North,353,0.0,0.0,63,0.00,,---,0.00,VWS V14.01,2013-01-22 06:28:00,
2013-01-22 01:33:00,59.9,47.3,30.06,NNW,335,2.2,2.2,63,0.00,,---,0.00,VWS V14.01,2013-01-22 06:33:00,
2013-01-22 01:38:00,59.9,47.7,30.06,North,353,3.1,3.1,64,0.00,,---,0.00,VWS V14.01,2013-01-22 06:38:00,
2013-01-22 01:43:00,59.9,47.3,30.06,North,353,2.7,2.7,63,0.00,,---,0.00,VWS V14.01,2013-01-22 06:43:00,
2013-01-22 01:48:00,60.1,47.5,30.06,North,350,0.0,0.0,63,0.00,,---,0.00,VWS V14.01,2013-01-22 06:48:00,
2013-01-22 01:53:00,60.1,47.0,30.06,North,353,0.0,0.0,62,0.00,,---,0.00,VWS V14.01,2013-01-22 06:53:00,
2013-01-22 01:58:00,60.1,46.6,30.03,NW,325,2.7,3.1,61,0.00,,---,0.00,VWS V14.01,2013-01-22 06:58:00,
2013-01-22 02:03:00,60.1,46.2,30.03,NNW,337,2.2,2.2,60,0.00,,---,0.00,VWS V14.01,2013-01-22 07:03:00,
2013-01-22 02:08:00,60.1,46.2,30.03,North,357,3.6,3.6,60,0.00,,---,0.00,VWS V14.01,2013-01-22 07:08:00,
2013-01-22 02:13:00,60.1,43.4,30.03,North,353,2.7,3.6,54,0.00,,---,0.00,VWS V14.01,2013-01-22 07:13:00,
2013-01-22 02:18:00,60.1,43.4,30.03,North,353,4.0,4.0,54,0.00,,---,0.00,VWS V14.01,2013-01-22 07:18:00,
2013-01-22 02:23:00,60.1,42.4,30.03,NNW,329,2.7,2.7,52,0.00,,---,0.00,VWS V14.01,2013-01-22 07:23:00,
2013-01-22 02:28:00,59.9,42.2,30.03,NNW,341,2.2,2.2,52,0.00,,---,0.00,VWS V14.01,2013-01-22 07:28:00,
2013-01-22 02:33:00,59.9,42.2,30.03,NNW,337,2.2,3.1,52,0.00,,---,0.00,VWS V14.01,2013-01-22 07:33:00,
2013-01-22 02:38:00,59.9,42.2,30.03,North,353,3.6,3.6,52,0.00,,---,0.00,VWS V14.01,2013-01-22 07:38:00,
2013-01-22 02:43:00,59.9,42.2,30.03,North,353,2.7,2.7,52,0.00,,---,0.00,VWS V14.01,2013-01-22 07:43:00,
2013-01-22 02:48:00,59.7,40.5,30.03,North,357,4.9,4.9,49,0.00,,---,0.00,VWS V14.01,2013-01-22 07:48:00,
2013-01-22 02:53:00,59.7,39.5,30.03,NNE,33,3.6,4.0,47,0.00,,---,0.00,VWS V14.01,2013-01-22 07:53:00,
2013-01-22 02:58:00,59.7,40.5,30.03,North,9,2.7,2.7,49,0.00,,---,0.00,VWS V14.01,2013-01-22 07:58:00,
2013-01-22 03:03:00,59.7,39.5,30.03,North,357,2.2,2.2,47,0.00,,---,0.00,VWS V14.01,2013-01-22 08:03:00,
2013-01-22 03:08:00,59.5,39.3,30.03,North,357,3.1,3.6,47,0.00,,---,0.00,VWS V14.01,2013-01-22 08:08:00,
2013-01-22 03:13:00,59.4,39.2,30.06,North,353,3.1,3.1,47,0.00,,---,0.00,VWS V14.01,2013-01-22 08:13:00,
2013-01-22 03:18:00,59.2,39.0,30.06,North,353,2.7,3.1,47,0.00,,---,0.00,VWS V14.01,2013-01-22 08:18:00,
2013-01-22 03:23:00,59.2,39.0,30.06,NNE,22,3.1,3.6,47,0.00,,---,0.00,VWS V14.01,2013-01-22 08:23:00,
2013-01-22 03:28:00,58.8,37.0,30.03,NNE,21,2.7,4.0,44,0.00,,---,0.00,VWS V14.01,2013-01-22 08:28:00,
2013-01-22 03:33:00,58.6,36.8,30.03,NNW,339,3.1,3.6,44,0.00,,---,0.00,VWS V14.01,2013-01-22 08:33:00,
2013-01-22 03:38:00,58.6,36.8,30.03,NNW,343,4.0,4.0,44,0.00,,---,0.00,VWS V14.01,2013-01-22 08:38:00,
2013-01-22 03:43:00,58.6,36.8,30.03,NNW,331,2.7,2.7,44,0.00,,---,0.00,VWS V14.01,2013-01-22 08:43:00,
2013-01-22 03:48:00,58.5,36.7,30.03,North,357,2.7,3.1,44,0.00,,---,0.00,VWS V14.01,2013-01-22 08:48:00,
2013-01-22 03:53:00,58.5,36.7,30.03,North,7,2.7,2.7,44,0.00,,---,0.00,VWS V14.01,2013-01-22 08:53:00,
2013-01-22 03:58:00,58.5,36.7,30.03,North,353,3.1,3.6,44,0.00,,---,0.00,VWS V14.01,2013-01-22 08:58:00,
2013-01-22 04:03:00,58.5,36.7,30.03,North,3,3.1,3.1,44,0.00,,---,0.00,VWS V14.01,2013-01-22 09:03:00,
2013-01-22 04:08:00,58.5,36.7,30.03,North,357,2.7,2.7,44,0.00,,---,0.00,VWS V14.01,2013-01-22 09:08:00,
2013-01-22 04:13:00,58.5,36.7,30.03,North,357,2.2,2.7,44,0.00,,---,0.00,VWS V14.01,2013-01-22 09:13:00,
2013-01-22 04:18:00,58.3,36.5,30.03,NNW,344,3.6,3.6,44,0.00,,---,0.00,VWS V14.01,2013-01-22 09:18:00,
2013-01-22 04:23:00,58.3,36.5,30.03,NNW,348,3.1,3.1,44,0.00,,---,0.00,VWS V14.01,2013-01-22 09:23:00,
2013-01-22 04:28:00,58.3,36.5,30.03,North,353,3.1,3.1,44,0.00,,---,0.00,VWS V14.01,2013-01-22 09:28:00,
2013-01-22 04:33:00,58.3,36.5,30.03,NNW,340,2.7,2.7,44,0.00,,---,0.00,VWS V14.01,2013-01-22 09:33:00,
2013-01-22 04:38:00,58.1,36.3,30.03,North,357,2.2,2.7,44,0.00,,---,0.00,VWS V14.01,2013-01-22 09:38:00,
2013-01-22 04:43:00,58.1,36.3,30.03,NNW,346,3.1,3.1,44,0.00,,---,0.00,VWS V14.01,2013-01-22 09:43:00,
2013-01-22 04:48:00,58.1,36.3,30.03,North,353,3.1,4.0,44,0.00,,---,0.00,VWS V14.01,2013-01-22 09:48:00,
2013-01-22 04:53:00,58.1,36.3,30.03,North,353,2.7,2.7,44,0.00,,---,0.00,VWS V14.01,2013-01-22 09:53:00,
2013-01-22 04:58:00,58.1,36.3,30.06,NNW,341,2.7,2.7,44,0.00,,---,0.00,VWS V14.01,2013-01-22 09:58:00,
2013-01-22 05:03:00,57.9,36.2,30.06,NW,325,0.0,2.7,44,0.00,,---,0.00,VWS V14.01,2013-01-22 10:03:00,
2013-01-22 05:08:00,57.9,36.2,30.06,North,353,0.0,0.0,44,0.00,,---,0.00,VWS V14.01,2013-01-22 10:08:00,
2013-01-22 05:13:00,57.7,36.0,30.06,NNW,348,3.1,3.1,44,0.00,,---,0.00,VWS V14.01,2013-01-22 10:13:00,
2013-01-22 05:18:00,57.7,36.0,30.06,North,353,0.0,2.2,44,0.00,,---,0.00,VWS V14.01,2013-01-22 10:18:00,
2013-01-22 05:23:00,57.6,35.8,30.06,NNW,339,0.0,0.0,44,0.00,,---,0.00,VWS V14.01,2013-01-22 10:23:00,
2013-01-22 05:28:00,57.6,35.8,30.06,NNW,337,2.7,2.7,44,0.00,,---,0.00,VWS V14.01,2013-01-22 10:28:00,
2013-01-22 05:33:00,57.4,35.7,30.06,North,353,3.1,3.6,44,0.00,,---,0.00,VWS V14.01,2013-01-22 10:33:00,
2013-01-22 05:38:00,57.4,35.7,30.06,North,353,2.7,2.7,44,0.00,,---,0.00,VWS V14.01,2013-01-22 10:38:00,
2013-01-22 05:43:00,57.2,35.5,30.06,North,353,2.7,2.7,44,0.00,,---,0.00,VWS V14.01,2013-01-22 10:43:00,
2013-01-22 05:48:00,57.2,35.5,30.06,North,2,0.0,0.0,44,0.00,,---,0.00,VWS V14.01,2013-01-22 10:48:00,
2013-01-22 05:53:00,57.2,35.5,30.06,North,353,0.0,0.0,44,0.00,,---,0.00,VWS V14.01,2013-01-22 10:53:00,
2013-01-22 05:58:00,57.2,35.5,30.06,NNW,331,2.2,3.6,44,0.00,,---,0.00,VWS V14.01,2013-01-22 10:58:00,
2013-01-22 06:03:00,57.0,35.9,30.06,North,353,2.7,2.7,45,0.00,,---,0.00,VWS V14.01,2013-01-22 11:03:00,
2013-01-22 06:08:00,56.8,35.7,30.06,North,353,0.0,0.0,45,0.00,,---,0.00,VWS V14.01,2013-01-22 11:08:00,
2013-01-22 06:13:00,56.8,35.7,30.06,North,353,0.0,0.0,45,0.00,,---,0.00,VWS V14.01,2013-01-22 11:13:00,
2013-01-22 06:18:00,56.7,35.6,30.06,North,5,2.7,2.7,45,0.00,,---,0.00,VWS V14.01,2013-01-22 11:18:00,
2013-01-22 06:23:00,56.7,35.6,30.06,NNW,330,3.1,3.6,45,0.00,,---,0.00,VWS V14.01,2013-01-22 11:23:00,
2013-01-22 06:28:00,56.7,35.6,30.09,North,353,3.1,3.6,45,0.00,,---,0.00,VWS V14.01,2013-01-22 11:28:00,
2013-01-22 06:33:00,56.8,35.7,30.09,NNW,336,2.7,2.7,45,0.00,,---,0.00,VWS V14.01,2013-01-22 11:33:00,
2013-01-22 06:38:00,56.8,35.7,30.09,North,353,3.6,3.6,45,0.00,,---,0.00,VWS V14.01,2013-01-22 11:38:00,
2013-01-22 06:43:00,56.8,35.7,30.09,North,353,2.7,2.7,45,0.00,,---,0.00,VWS V14.01,2013-01-22 11:43:00,
2013-01-22 06:48:00,56.8,35.7,30.09,NNW,348,2.7,2.7,45,0.00,,---,0.00,VWS V14.01,2013-01-22 11:48:00,
2013-01-22 06:53:00,56.8,35.7,30.09,North,357,3.1,3.6,45,0.00,,---,0.00,VWS V14.01,2013-01-22 11:53:00,
2013-01-22 06:58:00,56.7,35.6,30.09,NNW,346,3.1,3.6,45,0.00,,---,0.00,VWS V14.01,2013-01-22 11:58:00,
2013-01-22 07:03:00,56.5,35.4,30.09,NNE,16,4.0,5.4,45,0.00,,---,0.00,VWS V14.01,2013-01-22 12:03:00,
2013-01-22 07:08:00,56.5,35.4,30.09,North,357,3.1,6.3,45,0.00,,---,0.00,VWS V14.01,2013-01-22 12:08:00,
2013-01-22 07:13:00,56.3,35.2,30.09,North,357,4.0,4.0,45,0.00,,---,0.00,VWS V14.01,2013-01-22 12:13:00,
2013-01-22 07:18:00,56.3,35.2,30.09,North,349,3.6,3.6,45,0.00,,---,0.00,VWS V14.01,2013-01-22 12:18:00,
2013-01-22 07:23:00,56.1,35.1,30.09,NNW,343,2.7,3.1,45,0.00,,---,0.00,VWS V14.01,2013-01-22 12:23:00,
2013-01-22 07:28:00,55.9,34.9,30.12,North,353,2.2,2.7,45,0.00,,---,0.00,VWS V14.01,2013-01-22 12:28:00,
2013-01-22 07:33:00,55.9,34.9,30.12,NNW,343,2.2,2.2,45,0.00,,---,0.00,VWS V14.01,2013-01-22 12:33:00,
2013-01-22 07:38:00,55.8,34.8,30.12,North,1,3.6,3.6,45,0.00,,---,0.00,VWS V14.01,2013-01-22 12:38:00,
2013-01-22 07:43:00,55.8,34.8,30.12,North,349,3.1,3.1,45,0.00,,---,0.00,VWS V14.01,2013-01-22 12:43:00,
2013-01-22 07:48:00,55.8,34.8,30.12,North,353,2.7,4.0,45,0.00,,---,0.00,VWS V14.01,2013-01-22 12:48:00,
2013-01-22 07:53:00,55.8,34.8,30.12,North,353,3.1,3.1,45,0.00,,---,0.00,VWS V14.01,2013-01-22 12:53:00,
2013-01-22 07:58:00,55.9,34.9,30.15,NNE,26,2.7,3.6,45,0.00,,---,0.00,VWS V14.01,2013-01-22 12:58:00,
2013-01-22 08:03:00,55.9,34.9,30.15,NNW,346,4.0,4.0,45,0.00,,---,0.00,VWS V14.01,2013-01-22 13:03:00,
2013-01-22 08:08:00,55.9,34.9,30.15,NNW,342,4.0,5.4,45,0.00,,---,0.00,VWS V14.01,2013-01-22 13:08:00,
2013-01-22 08:13:00,55.9,34.9,30.15,NNE,12,3.6,5.8,45,0.00,,---,0.00,VWS V14.01,2013-01-22 13:13:00,
2013-01-22 08:18:00,55.9,34.9,30.15,North,5,4.9,5.8,45,0.00,,---,0.00,VWS V14.01,2013-01-22 13:18:00,
2013-01-22 08:23:00,55.9,34.9,30.15,North,357,3.6,4.0,45,0.00,,---,0.00,VWS V14.01,2013-01-22 13:23:00,
2013-01-22 08:28:00,55.8,34.8,30.15,NNW,348,4.5,6.3,45,0.00,,---,0.00,VWS V14.01,2013-01-22 13:28:00,
2013-01-22 08:33:00,55.9,34.9,30.15,NNW,338,6.3,6.3,45,0.00,,---,0.00,VWS V14.01,2013-01-22 13:33:00,
2013-01-22 08:38:00,55.9,34.9,30.15,North,5,3.6,4.0,45,0.00,,---,0.00,VWS V14.01,2013-01-22 13:38:00,
2013-01-22 08:43:00,56.1,35.1,30.15,NNW,328,4.9,4.9,45,0.00,,---,0.00,VWS V14.01,2013-01-22 13:43:00,
2013-01-22 08:48:00,56.1,35.1,30.15,North,357,8.3,8.3,45,0.00,,---,0.00,VWS V14.01,2013-01-22 13:48:00,
2013-01-22 08:53:00,56.3,35.2,30.15,NNE,12,5.8,5.8,45,0.00,,---,0.00,VWS V14.01,2013-01-22 13:53:00,
2013-01-22 08:58:00,56.3,35.2,30.18,North,3,5.4,5.4,45,0.00,,---,0.00,VWS V14.01,2013-01-22 13:58:00,
2013-01-22 09:04:00,56.3,35.2,30.18,North,353,4.0,8.1,45,0.00,,---,0.00,VWS V14.01,2013-01-22 14:04:00,
2013-01-22 09:09:00,56.3,35.2,30.18,North,357,4.9,6.3,45,0.00,,---,0.00,VWS V14.01,2013-01-22 14:09:00,
2013-01-22 09:14:00,56.5,33.7,30.18,North,353,3.6,5.8,42,0.00,,---,0.00,VWS V14.01,2013-01-22 14:14:00,
2013-01-22 09:19:00,56.7,33.8,30.18,NNW,348,4.9,6.3,42,0.00,,---,0.00,VWS V14.01,2013-01-22 14:19:00,
2013-01-22 09:24:00,56.7,33.8,30.18,NNE,24,8.1,8.1,42,0.00,,---,0.00,VWS V14.01,2013-01-22 14:24:00,
2013-01-22 09:29:00,56.8,34.0,30.18,North,10,4.0,7.2,42,0.00,,---,0.00,VWS V14.01,2013-01-22 14:29:00,
2013-01-22 09:34:00,56.8,34.0,30.18,NNE,25,3.1,8.7,42,0.00,,---,0.00,VWS V14.01,2013-01-22 14:34:00,
2013-01-22 09:39:00,56.8,34.0,30.18,North,9,3.1,4.0,42,0.00,,---,0.00,VWS V14.01,2013-01-22 14:39:00,
2013-01-22 09:44:00,57.2,34.3,30.18,WNW,299,3.6,3.6,42,0.00,,---,0.00,VWS V14.01,2013-01-22 14:44:00,
2013-01-22 09:49:00,57.9,35.0,30.18,North,357,5.4,5.8,42,0.00,,---,0.00,VWS V14.01,2013-01-22 14:49:00,
2013-01-22 09:54:00,58.5,35.5,30.21,North,357,5.4,5.4,42,0.00,,---,0.00,VWS V14.01,2013-01-22 14:54:00,
2013-01-22 09:59:00,58.8,35.8,30.21,North,357,4.0,5.8,42,0.00,,---,0.00,VWS V14.01,2013-01-22 14:59:00,
2013-01-22 10:04:00,58.6,35.6,30.21,North,357,4.0,8.7,42,0.00,,---,0.00,VWS V14.01,2013-01-22 15:04:00,
2013-01-22 10:09:00,58.8,35.8,30.21,North,357,5.8,5.8,42,0.00,,---,0.00,VWS V14.01,2013-01-22 15:09:00,
2013-01-22 10:14:00,59.0,36.0,30.21,NNE,14,4.9,4.9,42,0.00,,---,0.00,VWS V14.01,2013-01-22 15:14:00,
2013-01-22 10:19:00,59.2,36.1,30.21,North,7,4.0,4.0,42,0.00,,---,0.00,VWS V14.01,2013-01-22 15:19:00,
2013-01-22 10:24:00,59.7,36.6,30.21,NW,315,5.4,5.4,42,0.00,,---,0.00,VWS V14.01,2013-01-22 15:24:00,
2013-01-22 10:29:00,60.1,36.9,30.21,NNE,25,2.7,5.8,42,0.00,,---,0.00,VWS V14.01,2013-01-22 15:29:00,
2013-01-22 10:34:00,60.3,37.1,30.21,North,357,4.9,8.3,42,0.00,,---,0.00,VWS V14.01,2013-01-22 15:34:00,
2013-01-22 10:39:00,60.4,37.3,30.21,NNE,32,4.0,4.0,42,0.00,,---,0.00,VWS V14.01,2013-01-22 15:39:00,
2013-01-22 10:44:00,61.0,37.1,30.21,North,349,6.3,6.3,41,0.00,,---,0.00,VWS V14.01,2013-01-22 15:44:00,
2013-01-22 10:49:00,61.2,37.3,30.21,NNW,344,4.9,6.3,41,0.00,,---,0.00,VWS V14.01,2013-01-22 15:49:00,
2013-01-22 10:54:00,61.2,37.3,30.21,North,6,4.0,4.0,41,0.00,,---,0.00,VWS V14.01,2013-01-22 15:54:00,
2013-01-22 10:59:00,61.3,37.5,30.21,NNE,27,3.6,5.8,41,0.00,,---,0.00,VWS V14.01,2013-01-22 15:59:00,
2013-01-22 11:04:00,61.7,37.8,30.21,North,11,6.3,6.3,41,0.00,,---,0.00,VWS V14.01,2013-01-22 16:04:00,
2013-01-22 11:09:00,61.9,38.0,30.21,NE,39,5.4,5.4,41,0.00,,---,0.00,VWS V14.01,2013-01-22 16:09:00,
2013-01-22 11:14:00,62.2,38.3,30.21,North,353,5.4,5.4,41,0.00,,---,0.00,VWS V14.01,2013-01-22 16:14:00,
2013-01-22 11:19:00,62.6,38.6,30.21,North,0,4.0,4.0,41,0.00,,---,0.00,VWS V14.01,2013-01-22 16:19:00,
2013-01-22 11:24:00,62.6,38.6,30.21,North,8,5.4,6.7,41,0.00,,---,0.00,VWS V14.01,2013-01-22 16:24:00,
2013-01-22 11:29:00,62.6,38.6,30.21,NNE,16,4.9,4.9,41,0.00,,---,0.00,VWS V14.01,2013-01-22 16:29:00,
2013-01-22 11:34:00,62.6,38.6,30.21,NNE,17,6.3,6.3,41,0.00,,---,0.00,VWS V14.01,2013-01-22 16:34:00,
2013-01-22 11:39:00,63.0,38.9,30.21,NNE,12,2.2,2.2,41,0.00,,---,0.00,VWS V14.01,2013-01-22 16:39:00,
2013-01-22 11:44:00,63.1,39.1,30.21,North,353,3.1,4.0,41,0.00,,---,0.00,VWS V14.01,2013-01-22 16:44:00,
2013-01-22 11:49:00,63.3,39.2,30.21,NNE,27,3.1,3.6,41,0.00,,---,0.00,VWS V14.01,2013-01-22 16:49:00,
2013-01-22 11:54:00,63.9,39.7,30.18,NNW,338,4.0,5.4,41,0.00,,---,0.00,VWS V14.01,2013-01-22 16:54:00,
2013-01-22 11:59:00,64.8,39.9,30.18,NNE,32,5.8,5.8,40,0.00,,---,0.00,VWS V14.01,2013-01-22 16:59:00,
2013-01-22 12:04:00,64.9,40.1,30.18,NE,37,6.3,6.3,40,0.00,,---,0.00,VWS V14.01,2013-01-22 17:04:00,
2013-01-22 12:09:00,64.8,39.9,30.18,North,11,2.7,2.7,40,0.00,,---,0.00,VWS V14.01,2013-01-22 17:09:00,
2013-01-22 12:14:00,64.8,39.9,30.18,North,357,3.1,3.1,40,0.00,,---,0.00,VWS V14.01,2013-01-22 17:14:00,
2013-01-22 12:19:00,64.8,39.9,30.18,NNE,17,5.4,5.4,40,0.00,,---,0.00,VWS V14.01,2013-01-22 17:19:00,
2013-01-22 12:24:00,64.8,39.9,30.18,NNE,26,3.6,3.6,40,0.00,,---,0.00,VWS V14.01,2013-01-22 17:24:00,
2013-01-22 12:29:00,64.8,39.9,30.18,North,353,2.7,4.0,40,0.00,,---,0.00,VWS V14.01,2013-01-22 17:29:00,
2013-01-22 12:34:00,64.8,39.9,30.18,NNW,339,2.7,2.7,40,0.00,,---,0.00,VWS V14.01,2013-01-22 17:34:00,
2013-01-22 12:39:00,65.5,40.5,30.18,North,0,3.6,3.6,40,0.00,,---,0.00,VWS V14.01,2013-01-22 17:39:00,
2013-01-22 12:44:00,65.7,40.7,30.18,North,4,4.9,5.4,40,0.00,,---,0.00,VWS V14.01,2013-01-22 17:44:00,
2013-01-22 12:49:00,65.8,40.9,30.18,NNW,348,2.2,2.2,40,0.00,,---,0.00,VWS V14.01,2013-01-22 17:49:00,
2013-01-22 12:54:00,65.8,40.9,30.18,NNE,16,5.4,5.4,40,0.00,,---,0.00,VWS V14.01,2013-01-22 17:54:00,
2013-01-22 12:59:00,65.5,40.5,30.18,North,8,5.4,6.3,40,0.00,,---,0.00,VWS V14.01,2013-01-22 17:59:00,
2013-01-22 13:04:00,65.5,40.5,30.18,NNE,15,4.9,6.3,40,0.00,,---,0.00,VWS V14.01,2013-01-22 18:04:00,
2013-01-22 13:09:00,65.3,40.4,30.18,NE,38,3.6,4.9,40,0.00,,---,0.00,VWS V14.01,2013-01-22 18:09:00,
2013-01-22 13:14:00,65.1,40.2,30.18,North,3,4.0,4.0,40,0.00,,---,0.00,VWS V14.01,2013-01-22 18:14:00,
2013-01-22 13:19:00,64.9,40.1,30.18,North,353,8.3,8.3,40,0.00,,---,0.00,VWS V14.01,2013-01-22 18:19:00,
2013-01-22 13:24:00,64.9,40.1,30.15,North,357,5.4,8.1,40,0.00,,---,0.00,VWS V14.01,2013-01-22 18:24:00,
2013-01-22 13:29:00,64.9,40.1,30.15,NNE,12,5.8,6.3,40,0.00,,---,0.00,VWS V14.01,2013-01-22 18:29:00,
2013-01-22 13:34:00,64.9,40.1,30.15,NW,310,4.9,5.4,40,0.00,,---,0.00,VWS V14.01,2013-01-22 18:34:00,
2013-01-22 13:39:00,65.1,40.2,30.15,NE,35,2.7,2.7,40,0.00,,---,0.00,VWS V14.01,2013-01-22 18:39:00,
2013-01-22 13:44:00,65.1,40.2,30.15,North,4,5.4,5.4,40,0.00,,---,0.00,VWS V14.01,2013-01-22 18:44:00,
2013-01-22 13:49:00,64.6,39.7,30.15,NW,322,6.3,6.3,40,0.00,,---,0.00,VWS V14.01,2013-01-22 18:49:00,
2013-01-22 13:54:00,64.4,39.6,30.15,North,0,6.3,7.6,40,0.00,,---,0.00,VWS V14.01,2013-01-22 18:54:00,
2013-01-22 13:59:00,64.4,39.6,30.15,NNW,341,3.6,3.6,40,0.00,,---,0.00,VWS V14.01,2013-01-22 18:59:00,
2013-01-22 14:04:00,64.4,39.6,30.15,North,10,4.0,8.1,40,0.00,,---,0.00,VWS V14.01,2013-01-22 19:04:00,
2013-01-22 14:09:00,64.8,39.9,30.15,NNE,30,3.1,5.4,40,0.00,,---,0.00,VWS V14.01,2013-01-22 19:09:00,
2013-01-22 14:14:00,64.8,39.9,30.15,NNE,33,5.8,6.3,40,0.00,,---,0.00,VWS V14.01,2013-01-22 19:14:00,
2013-01-22 14:19:00,64.8,39.9,30.15,NNE,22,2.7,5.8,40,0.00,,---,0.00,VWS V14.01,2013-01-22 19:19:00,
2013-01-22 14:24:00,64.8,39.9,30.15,NNE,14,3.6,3.6,40,0.00,,---,0.00,VWS V14.01,2013-01-22 19:24:00,
2013-01-22 14:29:00,64.8,39.9,30.15,North,5,4.9,4.9,40,0.00,,---,0.00,VWS V14.01,2013-01-22 19:29:00,
2013-01-22 14:34:00,64.6,39.7,30.15,NNE,14,4.0,5.8,40,0.00,,---,0.00,VWS V14.01,2013-01-22 19:34:00,
2013-01-22 14:39:00,64.8,39.9,30.15,North,5,2.7,4.9,40,0.00,,---,0.00,VWS V14.01,2013-01-22 19:39:00,
2013-01-22 14:44:00,64.8,39.9,30.15,North,353,3.6,4.9,40,0.00,,---,0.00,VWS V14.01,2013-01-22 19:44:00,
2013-01-22 14:49:00,64.8,39.9,30.15,North,0,4.0,4.0,40,0.00,,---,0.00,VWS V14.01,2013-01-22 19:49:00,
2013-01-22 14:54:00,64.8,39.9,30.15,North,4,5.4,5.8,40,0.00,,---,0.00,VWS V14.01,2013-01-22 19:54:00,
2013-01-22 14:59:00,64.8,39.9,30.15,NNE,14,3.6,5.8,40,0.00,,---,0.00,VWS V14.01,2013-01-22 19:59:00,
2013-01-22 15:04:00,64.8,39.9,30.15,North,9,4.9,4.9,40,0.00,,---,0.00,VWS V14.01,2013-01-22 20:04:00,
2013-01-22 15:09:00,64.8,39.9,30.15,NNW,341,3.6,3.6,40,0.00,,---,0.00,VWS V14.01,2013-01-22 20:09:00,
2013-01-22 15:14:00,64.6,39.7,30.15,North,3,3.6,5.8,40,0.00,,---,0.00,VWS V14.01,2013-01-22 20:14:00,
2013-01-22 15:19:00,64.4,39.6,30.15,North,357,4.0,5.4,40,0.00,,---,0.00,VWS V14.01,2013-01-22 20:19:00,
2013-01-22 15:24:00,64.2,40.0,30.15,North,9,6.3,6.7,41,0.00,,---,0.00,VWS V14.01,2013-01-22 20:24:00,
2013-01-22 15:29:00,64.2,40.0,30.15,North,0,3.6,4.0,41,0.00,,---,0.00,VWS V14.01,2013-01-22 20:29:00,
2013-01-22 15:34:00,64.2,40.0,30.15,North,353,5.4,7.6,41,0.00,,---,0.00,VWS V14.01,2013-01-22 20:34:00,
2013-01-22 15:39:00,64.2,40.0,30.15,NNE,26,4.0,4.0,41,0.00,,---,0.00,VWS V14.01,2013-01-22 20:39:00,
2013-01-22 15:44:00,64.2,40.0,30.15,North,357,3.6,3.6,41,0.00,,---,0.00,VWS V14.01,2013-01-22 20:44:00,
2013-01-22 15:49:00,64.2,40.0,30.15,NNW,329,0.0,3.1,41,0.00,,---,0.00,VWS V14.01,2013-01-22 20:49:00,
2013-01-22 15:54:00,64.2,40.0,30.15,North,353,5.8,6.3,41,0.00,,---,0.00,VWS V14.01,2013-01-22 20:54:00,
2013-01-22 15:59:00,64.0,39.9,30.15,North,10,6.3,6.3,41,0.00,,---,0.00,VWS V14.01,2013-01-22 20:59:00,
2013-01-22 16:04:00,63.9,39.7,30.15,North,2,4.0,4.9,41,0.00,,---,0.00,VWS V14.01,2013-01-22 21:04:00,
2013-01-22 16:09:00,63.7,39.6,30.18,NNE,24,3.6,5.4,41,0.00,,---,0.00,VWS V14.01,2013-01-22 21:09:00,
2013-01-22 16:14:00,63.5,39.4,30.18,NW,317,3.1,3.1,41,0.00,,---,0.00,VWS V14.01,2013-01-22 21:14:00,
2013-01-22 16:19:00,63.3,39.2,30.18,NE,39,4.0,8.7,41,0.00,,---,0.00,VWS V14.01,2013-01-22 21:19:00,
2013-01-22 16:24:00,63.3,39.2,30.18,NE,45,6.3,6.3,41,0.00,,---,0.00,VWS V14.01,2013-01-22 21:24:00,
2013-01-22 16:29:00,63.1,39.1,30.18,NNW,348,4.0,4.0,41,0.00,,---,0.00,VWS V14.01,2013-01-22 21:29:00,
2013-01-22 16:31:00,63.1,39.1,30.18,NNE,20,5.4,5.4,41,0.00,,---,0.00,VWS V14.01,2013-01-22 21:31:00,
2013-01-22 16:36:00,63.0,38.9,30.18,NNW,340,3.1,3.6,41,0.00,,---,0.00,VWS V14.01,2013-01-22 21:36:00,
2013-01-22 16:41:00,63.0,38.9,30.18,NNE,15,4.0,5.4,41,0.00,,---,0.00,VWS V14.01,2013-01-22 21:41:00,
2013-01-22 16:46:00,62.6,38.6,30.18,NE,39,3.1,3.1,41,0.00,,---,0.00,VWS V14.01,2013-01-22 21:46:00,
2013-01-22 16:51:00,62.4,38.4,30.18,North,0,4.0,4.0,41,0.00,,---,0.00,VWS V14.01,2013-01-22 21:51:00,
2013-01-22 16:56:00,62.2,38.3,30.18,North,353,3.1,3.6,41,0.00,,---,0.00,VWS V14.01,2013-01-22 21:56:00,
2013-01-22 17:01:00,62.2,38.3,30.18,North,0,3.1,3.1,41,0.00,,---,0.00,VWS V14.01,2013-01-22 22:01:00,
2013-01-22 17:06:00,62.1,38.1,30.18,North,7,4.9,5.8,41,0.00,,---,0.00,VWS V14.01,2013-01-22 22:06:00,
2013-01-22 17:11:00,61.9,38.0,30.18,North,11,5.4,5.8,41,0.00,,---,0.00,VWS V14.01,2013-01-22 22:11:00,
2013-01-22 17:16:00,61.7,37.8,30.18,North,357,4.0,4.0,41,0.00,,---,0.00,VWS V14.01,2013-01-22 22:16:00,
2013-01-22 17:21:00,61.5,37.6,30.18,NNW,343,3.6,3.6,41,0.00,,---,0.00,VWS V14.01,2013-01-22 22:21:00,
2013-01-22 17:26:00,61.2,37.3,30.18,NNE,33,3.6,5.8,41,0.00,,---,0.00,VWS V14.01,2013-01-22 22:26:00,
2013-01-22 17:31:00,61.0,37.1,30.18,NNW,343,4.9,5.8,41,0.00,,---,0.00,VWS V14.01,2013-01-22 22:31:00,
2013-01-22 17:36:00,60.8,37.0,30.18,North,353,4.9,4.9,41,0.00,,---,0.00,VWS V14.01,2013-01-22 22:36:00,
2013-01-22 17:41:00,60.6,37.4,30.18,NNE,17,3.6,3.6,42,0.00,,---,0.00,VWS V14.01,2013-01-22 22:41:00,
2013-01-22 17:46:00,60.3,37.1,30.18,NNE,12,3.1,3.1,42,0.00,,---,0.00,VWS V14.01,2013-01-22 22:46:00,
2013-01-22 17:51:00,60.1,36.9,30.18,NE,54,3.1,3.1,42,0.00,,---,0.00,VWS V14.01,2013-01-22 22:51:00,
2013-01-22 17:56:00,59.7,36.6,30.18,North,357,2.2,2.2,42,0.00,,---,0.00,VWS V14.01,2013-01-22 22:56:00,
2013-01-22 18:01:00,59.4,36.3,30.18,North,11,0.0,2.2,42,0.00,,---,0.00,VWS V14.01,2013-01-22 23:01:00,
2013-01-22 18:06:00,59.2,36.1,30.18,North,1,2.2,2.7,42,0.00,,---,0.00,VWS V14.01,2013-01-22 23:06:00,
2013-01-22 18:11:00,59.0,36.0,30.21,North,357,0.0,0.0,42,0.00,,---,0.00,VWS V14.01,2013-01-22 23:11:00,
2013-01-22 18:16:00,58.8,35.8,30.21,North,357,0.0,0.0,42,0.00,,---,0.00,VWS V14.01,2013-01-22 23:16:00,
2013-01-22 18:22:00,58.6,35.6,30.21,North,3,2.2,3.1,42,0.00,,---,0.00,VWS V14.01,2013-01-22 23:22:00,
2013-01-22 18:27:00,58.5,35.5,30.21,NNE,22,0.0,2.2,42,0.00,,---,0.00,VWS V14.01,2013-01-22 23:27:00,
2013-01-22 18:32:00,58.5,35.5,30.21,North,357,0.0,0.0,42,0.00,,---,0.00,VWS V14.01,2013-01-22 23:32:00,
2013-01-22 18:37:00,58.3,35.3,30.21,NNE,18,2.7,3.1,42,0.00,,---,0.00,VWS V14.01,2013-01-22 23:37:00,
2013-01-22 18:42:00,58.1,35.2,30.21,North,7,0.0,2.7,42,0.00,,---,0.00,VWS V14.01,2013-01-22 23:42:00,
2013-01-22 18:47:00,58.1,35.2,30.21,North,357,0.0,0.0,42,0.00,,---,0.00,VWS V14.01,2013-01-22 23:47:00,
2013-01-22 18:52:00,57.9,35.0,30.21,North,357,0.0,2.2,42,0.00,,---,0.00,VWS V14.01,2013-01-22 23:52:00,
2013-01-22 18:57:00,57.7,34.8,30.21,North,9,2.7,3.1,42,0.00,,---,0.00,VWS V14.01,2013-01-22 23:57:00,
2013-01-22 19:02:00,57.7,34.8,30.21,North,9,2.2,2.2,42,0.00,,---,0.00,VWS V14.01,2013-01-23 00:02:00,
2013-01-22 19:07:00,57.6,34.7,30.21,North,357,0.0,0.0,42,0.00,,---,0.00,VWS V14.01,2013-01-23 00:07:00,
2013-01-22 19:12:00,57.6,34.7,30.21,NNE,13,0.0,0.0,42,0.00,,---,0.00,VWS V14.01,2013-01-23 00:12:00,
2013-01-22 19:17:00,57.6,34.7,30.21,NNE,12,0.0,0.0,42,0.00,,---,0.00,VWS V14.01,2013-01-23 00:17:00,
2013-01-22 19:22:00,57.6,34.7,30.21,North,10,0.0,0.0,42,0.00,,---,0.00,VWS V14.01,2013-01-23 00:22:00,
2013-01-22 19:27:00,57.4,34.5,30.21,North,10,0.0,0.0,42,0.00,,---,0.00,VWS V14.01,2013-01-23 00:27:00,
2013-01-22 19:32:00,57.2,34.3,30.21,North,10,0.0,0.0,42,0.00,,---,0.00,VWS V14.01,2013-01-23 00:32:00,
2013-01-22 19:37:00,57.2,34.3,30.21,North,10,0.0,0.0,42,0.00,,---,0.00,VWS V14.01,2013-01-23 00:37:00,
2013-01-22 19:42:00,57.0,34.2,30.21,North,10,0.0,0.0,42,0.00,,---,0.00,VWS V14.01,2013-01-23 00:42:00,
2013-01-22 19:47:00,56.8,34.0,30.21,North,10,0.0,0.0,42,0.00,,---,0.00,VWS V14.01,2013-01-23 00:47:00,
2013-01-22 19:52:00,56.8,34.0,30.21,North,10,0.0,0.0,42,0.00,,---,0.00,VWS V14.01,2013-01-23 00:52:00,
2013-01-22 19:57:00,56.7,33.8,30.21,North,10,0.0,0.0,42,0.00,,---,0.00,VWS V14.01,2013-01-23 00:57:00,
2013-01-22 20:02:00,56.5,33.7,30.21,North,10,0.0,0.0,42,0.00,,---,0.00,VWS V14.01,2013-01-23 01:02:00,
2013-01-22 20:07:00,56.5,33.7,30.21,North,9,0.0,0.0,42,0.00,,---,0.00,VWS V14.01,2013-01-23 01:07:00,
2013-01-22 20:12:00,56.3,33.5,30.21,North,5,0.0,0.0,42,0.00,,---,0.00,VWS V14.01,2013-01-23 01:12:00,
2013-01-22 20:17:00,56.3,33.5,30.21,North,5,0.0,0.0,42,0.00,,---,0.00,VWS V14.01,2013-01-23 01:17:00,
2013-01-22 20:22:00,56.3,33.5,30.21,NNE,15,0.0,0.0,42,0.00,,---,0.00,VWS V14.01,2013-01-23 01:22:00,
2013-01-22 20:27:00,56.3,33.5,30.24,North,357,0.0,0.0,42,0.00,,---,0.00,VWS V14.01,2013-01-23 01:27:00,
2013-01-22 20:32:00,56.3,33.5,30.24,North,357,0.0,0.0,42,0.00,,---,0.00,VWS V14.01,2013-01-23 01:32:00,
2013-01-22 20:37:00,56.1,33.4,30.24,North,357,0.0,0.0,42,0.00,,---,0.00,VWS V14.01,2013-01-23 01:37:00,
2013-01-22 20:42:00,55.9,33.2,30.24,North,357,0.0,0.0,42,0.00,,---,0.00,VWS V14.01,2013-01-23 01:42:00,
2013-01-22 20:47:00,55.8,33.0,30.24,North,357,0.0,0.0,42,0.00,,---,0.00,VWS V14.01,2013-01-23 01:47:00,
2013-01-22 20:52:00,55.6,32.9,30.24,North,357,0.0,0.0,42,0.00,,---,0.00,VWS V14.01,2013-01-23 01:52:00,
2013-01-22 20:57:00,55.4,32.7,30.24,North,357,0.0,0.0,42,0.00,,---,0.00,VWS V14.01,2013-01-23 01:57:00,
2013-01-22 21:02:00,55.2,33.1,30.24,North,357,0.0,0.0,43,0.00,,---,0.00,VWS V14.01,2013-01-23 02:02:00,
2013-01-22 21:07:00,55.2,33.1,30.24,North,357,0.0,0.0,43,0.00,,---,0.00,VWS V14.01,2013-01-23 02:07:00,
2013-01-22 21:12:00,54.9,32.8,30.24,North,357,0.0,0.0,43,0.00,,---,0.00,VWS V14.01,2013-01-23 02:12:00,
2013-01-22 21:17:00,54.5,32.5,30.24,North,357,0.0,0.0,43,0.00,,---,0.00,VWS V14.01,2013-01-23 02:17:00,
2013-01-22 21:23:00,54.3,32.3,30.24,North,357,0.0,0.0,43,0.00,,---,0.00,VWS V14.01,2013-01-23 02:23:00,
2013-01-22 21:28:00,54.1,32.2,30.24,North,357,0.0,0.0,43,0.00,,---,0.00,VWS V14.01,2013-01-23 02:28:00,
2013-01-22 21:33:00,53.8,31.8,30.24,North,357,0.0,0.0,43,0.00,,---,0.00,VWS V14.01,2013-01-23 02:33:00,
2013-01-22 21:38:00,53.6,31.7,30.24,North,357,0.0,0.0,43,0.00,,---,0.00,VWS V14.01,2013-01-23 02:38:00,
2013-01-22 21:43:00,53.4,31.5,30.24,North,357,0.0,0.0,43,0.00,,---,0.00,VWS V14.01,2013-01-23 02:43:00,
2013-01-22 21:48:00,53.1,31.2,30.24,North,357,0.0,0.0,43,0.00,,---,0.00,VWS V14.01,2013-01-23 02:48:00,
2013-01-22 21:53:00,52.9,31.0,30.24,North,357,0.0,0.0,43,0.00,,---,0.00,VWS V14.01,2013-01-23 02:53:00,
2013-01-22 21:58:00,52.5,30.7,30.24,North,357,0.0,0.0,43,0.00,,---,0.00,VWS V14.01,2013-01-23 02:58:00,
2013-01-22 22:03:00,52.3,32.2,30.24,North,357,0.0,0.0,46,0.00,,---,0.00,VWS V14.01,2013-01-23 03:03:00,
2013-01-22 22:08:00,52.2,32.0,30.24,North,357,0.0,0.0,46,0.00,,---,0.00,VWS V14.01,2013-01-23 03:08:00,
2013-01-22 22:13:00,52.0,31.9,30.24,North,357,0.0,0.0,46,0.00,,---,0.00,VWS V14.01,2013-01-23 03:13:00,
2013-01-22 22:18:00,51.8,31.7,30.24,North,357,0.0,0.0,46,0.00,,---,0.00,VWS V14.01,2013-01-23 03:18:00,
2013-01-22 22:23:00,51.8,31.7,30.24,North,357,0.0,0.0,46,0.00,,---,0.00,VWS V14.01,2013-01-23 03:23:00,
2013-01-22 22:28:00,51.8,31.7,30.24,North,357,0.0,0.0,46,0.00,,---,0.00,VWS V14.01,2013-01-23 03:28:00,
2013-01-22 22:33:00,51.6,31.5,30.24,North,357,0.0,0.0,46,0.00,,---,0.00,VWS V14.01,2013-01-23 03:33:00,
2013-01-22 22:38:00,51.4,31.4,30.24,North,357,0.0,0.0,46,0.00,,---,0.00,VWS V14.01,2013-01-23 03:38:00,
2013-01-22 22:43:00,51.4,31.4,30.24,North,357,0.0,0.0,46,0.00,,---,0.00,VWS V14.01,2013-01-23 03:43:00,
2013-01-22 22:48:00,51.4,31.4,30.24,North,357,0.0,0.0,46,0.00,,---,0.00,VWS V14.01,2013-01-23 03:48:00,
2013-01-22 22:53:00,51.3,31.2,30.24,North,357,0.0,0.0,46,0.00,,---,0.00,VWS V14.01,2013-01-23 03:53:00,
2013-01-22 22:58:00,51.3,32.8,30.24,North,357,0.0,0.0,49,0.00,,---,0.00,VWS V14.01,2013-01-23 03:58:00,
2013-01-22 23:03:00,51.3,32.8,30.24,North,357,0.0,0.0,49,0.00,,---,0.00,VWS V14.01,2013-01-23 04:03:00,
2013-01-22 23:08:00,51.1,32.6,30.24,North,357,0.0,0.0,49,0.00,,---,0.00,VWS V14.01,2013-01-23 04:08:00,
2013-01-22 23:13:00,51.1,32.6,30.24,North,357,0.0,0.0,49,0.00,,---,0.00,VWS V14.01,2013-01-23 04:13:00,
2013-01-22 23:18:00,50.9,32.4,30.24,North,357,0.0,0.0,49,0.00,,---,0.00,VWS V14.01,2013-01-23 04:18:00,
2013-01-22 23:23:00,50.9,30.9,30.24,North,357,0.0,0.0,46,0.00,,---,0.00,VWS V14.01,2013-01-23 04:23:00,
2013-01-22 23:28:00,50.9,32.4,30.24,North,357,0.0,0.0,49,0.00,,---,0.00,VWS V14.01,2013-01-23 04:28:00,
2013-01-22 23:33:00,50.9,32.4,30.24,North,357,0.0,0.0,49,0.00,,---,0.00,VWS V14.01,2013-01-23 04:33:00,
2013-01-22 23:38:00,51.1,32.6,30.24,North,357,0.0,0.0,49,0.00,,---,0.00,VWS V14.01,2013-01-23 04:38:00,
2013-01-22 23:43:00,51.3,32.8,30.24,North,357,0.0,0.0,49,0.00,,---,0.00,VWS V14.01,2013-01-23 04:43:00,
2013-01-22 23:48:00,51.3,32.8,30.24,North,357,0.0,0.0,49,0.00,,---,0.00,VWS V14.01,2013-01-23 04:48:00,
2013-01-22 23:53:00,51.3,32.8,30.24,North,357,0.0,0.0,49,0.00,,---,0.00,VWS V14.01,2013-01-23 04:53:00,
2013-01-22 23:58:00,51.3,32.8,30.24,North,357,0.0,0.0,49,0.00,,---,0.00,VWS V14.01,2013-01-23 04:58:00,